Lysa Hora, Czech Republic
Current Conditions -  °F | °C
As of 4:30 AM on Friday 21 Nov 2014 (Local Time) from LKMT Reporting Station
Haze Haze  
Wind Chill: 35°   Ceiling: 300
Heat Index: 39°   Visibility: 1.2mi
Dew Point: 37°   Wind: 6mph
Humidity: 93%   Direction: 40°NE
Pressure: 30.27"   Gusts: NA
Location:  49.55°N, 18.45°E
Report Text: LKMT 210230Z 04005KT 2000 BR BKN003 OVC007 04/03 Q1025 NOSIG
Loading
Personal Weather Stations






























Interactive Weather Map New forecast layout! Learn more

10-Day Weather Forecast

Advertisements
Track Severe Weather on mobile